Flight Track Log - Related Links

Times and Time Zones

All times are in EDT time to prevent confusion due to time zone crossing. See the N779NC flight status page for this flight to view local times or setup timezone preferences in your user account.

Time Position Orientation Groundspeed Altitude Reporting Facility
EDT Latitude Longitude Course Direction KTS MPH feet Rate Location/Type
Tue 12:23:30 PM 33.6667 -84.5000 284° West 240 276 3,000  Level Atlanta TRACON
Tue 12:24:23 PM 33.6833 -84.5833 284° West 261 300 5,300 2,370 Climbing Atlanta TRACON
Tue 12:25:29 PM 33.6833 -84.6667 270° West 271 312 7,700 1,785 Climbing Atlanta TRACON
Tue 12:27:48 PM 33.5889 -84.8842 243° Southwest 294 338 11,400 1,598 Climbing Atlanta Center
Tue 12:28:48 PM 33.5422 -84.9883 242° Southwest 331 381 13,000 1,700 Climbing Atlanta Center
Tue 12:29:48 PM 33.5142 -85.1053 254° West 360 414 14,800 1,800 Climbing Atlanta Center
Tue 12:30:48 PM 33.5006 -85.2247 262° West 365 420 16,600 1,600 Climbing Atlanta Center
Tue 12:31:48 PM 33.4889 -85.3464 263° West 370 426 18,000 1,250 Climbing Atlanta Center
Tue 12:32:48 PM 33.4792 -85.4733 265° West 384 442 19,100 1,250 Climbing Atlanta Center
Tue 12:33:48 PM 33.4586 -85.6050 259° West 396 456 20,500 1,350 Climbing Atlanta Center
Tue 12:34:48 PM 33.4297 -85.7339 255° West 396 456 21,800 1,150 Climbing Atlanta Center
Tue 12:35:48 PM 33.3925 -85.8600 251° West 396 456 22,800 950 Climbing Atlanta Center
Tue 12:36:48 PM 33.3467 -85.9908 247° West 407 468 23,700 900 Climbing Atlanta Center
Tue 12:37:48 PM 33.2925 -86.1164 243° Southwest 419 482 24,600 950 Climbing Atlanta Center
Tue 12:38:48 PM 33.2381 -86.2517 244° Southwest 431 496 25,600 950 Climbing Atlanta Center
Tue 12:39:48 PM 33.1853 -86.3919 246° West 449 517 26,500 900 Climbing Atlanta Center
Tue 12:40:48 PM 33.1389 -86.5269 248° West 450 518 27,400 800 Climbing Atlanta Center
Tue 12:41:48 PM 33.0942 -86.6697 250° West 455 524 28,100 850 Climbing Atlanta Center
Tue 12:42:48 PM 33.0492 -86.8119 249° West 467 537 29,100 950 Climbing Atlanta Center
Tue 12:43:48 PM 33.0022 -86.9542 249° West 467 537 30,000 450 Climbing Atlanta Center
Tue 12:44:48 PM 32.9547 -87.0986 249° West 459 528 30,000  Level Atlanta Center
Tue 12:46:50 PM 32.8594 -87.3772 248° West 475 547 30,000  Level Memphis Center
Tue 12:47:50 PM 32.8150 -87.5269 251° West 475 547 30,000  Level Memphis Center
Tue 12:48:50 PM 32.7703 -87.6767 250° West 475 547 30,000  Level Memphis Center
Tue 12:49:50 PM 32.7236 -87.8436 252° West 482 555 30,000  Level Memphis Center
Tue 12:50:50 PM 32.6844 -87.9656 249° West 474 545 30,000  Level Memphis Center
Tue 12:51:50 PM 32.6347 -88.1075 247° West 474 545 30,000  Level Memphis Center
Tue 12:52:50 PM 32.5789 -88.2494 245° Southwest 474 545 30,000  Level Memphis Center
Tue 12:53:50 PM 32.5228 -88.3911 245° Southwest 474 545 30,000 -150 Level Memphis Center
Tue 12:54:50 PM 32.4686 -88.5328 246° West 474 545 29,700 -600 Descending Memphis Center
Tue 12:55:50 PM 32.4161 -88.6742 246° West 474 545 28,800 -1,750 Descending Memphis Center
Tue 12:56:50 PM 32.3722 -88.8200 250° West 474 545 26,200 -3,200 Descending Memphis Center
Tue 12:57:50 PM 32.3636 -88.9703 266° West 460 529 22,400 -3,500 Descending Memphis Center
Tue 12:58:50 PM 32.3881 -89.1150 281° West 453 521 19,200 -2,800 Descending Memphis Center
Tue 12:59:50 PM 32.4039 -89.2525 278° West 446 513 16,800 -2,700 Descending Memphis Center
Tue 01:00:50 PM 32.4114 -89.3828 274° West 423 487 13,800 -2,700 Descending Memphis Center
Tue 01:01:50 PM 32.4122 -89.5083 270° West 402 463 11,400 -1,650 Descending Memphis Center
Tue 01:02:50 PM 32.4025 -89.6217 264° West 371 427 10,500 -1,000 Descending Memphis Center
Tue 01:03:50 PM 32.3947 -89.7128 264° West 331 381 9,400 -1,400 Descending Memphis Center
Tue 01:04:50 PM 32.3722 -89.8014 253° West 293 337 7,700 -1,700 Descending Memphis Center
Tue 01:05:50 PM 32.3475 -89.8853 251° West 280 322 6,000 -2,100 Descending Memphis Center
Tue 01:06:50 PM 32.3269 -89.9664 253° West 275 316 3,500 -2,150 Descending Memphis Center
Tue 01:07:50 PM 32.2728 -90.0183 219° Southwest 235 270 1,700 -1,350 Descending Memphis Center
Tue 01:08:50 PM 32.2708 -90.0600 267° West 168 193 800 -600 Descending Memphis Center
Tue 01:09:50 PM 32.2750 -90.0944 278° West 137 158 500 -300 Descending Memphis Center

Login

Don't have an account? Register now (free) for customized features, flight alerts, and more!